createdAt,value
2017-12-16T00:00:54.194Z,42.08
2017-12-16T00:03:22.722Z,42.06
2017-12-16T00:05:51.421Z,42.12
2017-12-16T00:08:19.691Z,42.00
2017-12-16T00:10:47.998Z,41.98
2017-12-16T00:13:16.427Z,41.98
2017-12-16T00:15:44.855Z,41.93
2017-12-16T00:18:13.223Z,41.95
2017-12-16T00:20:41.642Z,41.83
2017-12-16T00:23:09.891Z,41.87
2017-12-16T00:25:38.254Z,41.95
2017-12-16T00:28:06.688Z,42.19
2017-12-16T00:30:35.199Z,42.04
2017-12-16T00:33:03.479Z,41.98
2017-12-16T00:35:31.759Z,42.00
2017-12-16T00:38:00.199Z,41.85
2017-12-16T00:40:28.622Z,41.78
2017-12-16T00:42:56.960Z,41.79
2017-12-16T00:45:25.290Z,41.68
2017-12-16T00:47:53.731Z,41.72
2017-12-16T00:50:22.051Z,41.83
2017-12-16T00:52:50.313Z,41.80
2017-12-16T00:55:18.603Z,41.80
2017-12-16T00:57:47.063Z,41.83
2017-12-16T01:00:15.554Z,41.87
2017-12-16T01:02:43.844Z,41.90
2017-12-16T01:05:12.336Z,41.82
2017-12-16T01:07:40.628Z,41.86
2017-12-16T01:10:09.055Z,41.80
2017-12-16T01:12:37.527Z,41.82
2017-12-16T01:15:05.799Z,41.69
2017-12-16T01:17:34.108Z,41.45
2017-12-16T01:20:02.407Z,41.43
2017-12-16T01:22:30.692Z,41.35
2017-12-16T01:24:58.952Z,41.42
2017-12-16T01:27:27.279Z,41.40
2017-12-16T01:29:55.807Z,41.28
2017-12-16T01:32:24.101Z,41.49
2017-12-16T01:39:09.321Z,41.58
2017-12-16T01:41:37.626Z,41.59
2017-12-16T01:44:05.912Z,41.69
2017-12-16T01:46:34.388Z,41.68
2017-12-16T01:49:02.797Z,41.67
2017-12-16T01:51:31.275Z,41.73
2017-12-16T01:53:59.535Z,41.71
2017-12-16T01:56:27.871Z,41.66
2017-12-16T01:58:56.122Z,41.58
2017-12-16T02:01:24.697Z,41.58
2017-12-16T02:03:52.987Z,41.45
2017-12-16T02:06:21.308Z,41.32
2017-12-16T02:08:49.646Z,41.24
2017-12-16T02:11:18.070Z,41.25
2017-12-16T02:13:46.319Z,41.19
2017-12-16T02:16:14.652Z,41.27
2017-12-16T02:18:42.972Z,41.24
2017-12-16T02:21:11.623Z,41.36
2017-12-16T02:23:39.935Z,41.25
2017-12-16T02:26:08.207Z,41.40
2017-12-16T02:28:36.471Z,41.27
2017-12-16T02:31:04.828Z,41.40
2017-12-16T02:33:33.173Z,41.40
2017-12-16T02:36:01.605Z,41.54
2017-12-16T02:38:30.103Z,41.49
2017-12-16T02:40:58.392Z,41.57
2017-12-16T02:43:26.879Z,41.58
2017-12-16T02:45:55.151Z,41.44
2017-12-16T02:48:23.407Z,41.25
2017-12-16T02:50:51.741Z,41.16
2017-12-16T02:53:20.071Z,41.12
2017-12-16T02:55:48.503Z,41.11
2017-12-16T02:58:16.755Z,41.11
2017-12-16T03:00:45.028Z,41.16
2017-12-16T03:03:13.503Z,41.17
2017-12-16T03:05:41.865Z,41.15
2017-12-16T03:08:10.144Z,40.87
2017-12-16T03:10:38.448Z,40.57
2017-12-16T03:13:06.683Z,40.38
2017-12-16T03:15:35.000Z,40.36
2017-12-16T03:18:03.324Z,40.40
2017-12-16T03:20:31.643Z,40.46
2017-12-16T03:22:59.951Z,40.39
2017-12-16T03:25:28.234Z,40.40
2017-12-16T03:27:56.522Z,40.33
2017-12-16T03:30:24.960Z,40.31
2017-12-16T03:32:53.217Z,40.33
2017-12-16T03:35:21.523Z,40.22
2017-12-16T03:37:49.834Z,40.33
2017-12-16T03:40:18.538Z,40.31
2017-12-16T03:42:46.826Z,40.32
2017-12-16T03:45:15.152Z,40.17
2017-12-16T03:47:43.435Z,40.16
2017-12-16T03:50:11.723Z,40.12
2017-12-16T03:52:40.058Z,40.09
2017-12-16T03:55:08.373Z,40.07
2017-12-16T03:57:36.614Z,40.27
2017-12-16T04:00:04.892Z,40.42
2017-12-16T04:02:33.339Z,40.26
2017-12-16T04:05:01.631Z,40.42
2017-12-16T04:07:30.127Z,40.38
2017-12-16T04:09:58.375Z,40.27
2017-12-16T04:12:26.881Z,40.26
2017-12-16T04:14:55.145Z,40.26
2017-12-16T04:17:23.479Z,40.21
2017-12-16T04:19:51.811Z,40.28
2017-12-16T04:22:20.199Z,40.34
2017-12-16T04:24:48.468Z,40.41
2017-12-16T04:27:16.776Z,40.54
2017-12-16T04:29:45.183Z,40.60
2017-12-16T04:32:13.493Z,40.56
2017-12-16T04:34:41.844Z,40.69
2017-12-16T04:37:10.168Z,40.60
2017-12-16T04:39:38.643Z,40.61
2017-12-16T04:42:06.971Z,40.65
2017-12-16T04:44:35.219Z,40.50
2017-12-16T04:47:03.583Z,40.54
2017-12-16T04:49:31.875Z,40.41
2017-12-16T04:52:00.355Z,40.46
2017-12-16T04:54:28.725Z,40.39
2017-12-16T04:56:57.024Z,40.55
2017-12-16T04:59:25.315Z,40.53
2017-12-16T05:04:49.461Z,40.55
2017-12-16T05:07:18.310Z,40.65
2017-12-16T05:09:47.086Z,40.71
2017-12-16T05:12:15.708Z,40.82
2017-12-16T05:14:44.396Z,40.67
2017-12-16T05:17:12.989Z,40.61
2017-12-16T05:19:41.772Z,40.44
2017-12-16T05:22:10.404Z,40.50
2017-12-16T05:24:39.126Z,40.49
2017-12-16T05:27:07.707Z,40.51
2017-12-16T05:29:36.461Z,40.51
2017-12-16T05:32:05.443Z,40.48
2017-12-16T05:34:33.888Z,40.56
2017-12-16T05:37:02.477Z,40.54
2017-12-16T05:39:31.241Z,40.55
2017-12-16T05:41:59.936Z,40.50
2017-12-16T05:44:28.697Z,40.72
2017-12-16T05:46:57.528Z,40.87
2017-12-16T05:49:29.125Z,40.89
2017-12-16T05:51:57.737Z,40.79
2017-12-16T05:54:26.321Z,40.71
2017-12-16T05:56:55.160Z,40.60
2017-12-16T05:59:23.819Z,40.94
2017-12-16T06:01:54.291Z,41.14
2017-12-16T06:04:23.028Z,41.17
2017-12-16T06:06:51.626Z,41.08
2017-12-16T06:09:20.237Z,40.96
2017-12-16T06:11:49.011Z,40.90
2017-12-16T06:14:17.582Z,41.02
2017-12-16T06:16:46.360Z,41.12
2017-12-16T06:19:14.941Z,41.18
2017-12-16T06:21:43.657Z,41.22
2017-12-16T06:24:12.311Z,41.04
2017-12-16T06:26:41.013Z,40.36
2017-12-16T06:29:09.600Z,40.50
2017-12-16T06:31:38.261Z,40.29
2017-12-16T06:34:06.889Z,40.35
2017-12-16T06:36:35.574Z,40.46
2017-12-16T06:39:04.343Z,40.47
2017-12-16T06:41:32.974Z,40.49
2017-12-16T06:44:01.660Z,40.48
2017-12-16T06:46:30.476Z,40.90
2017-12-16T06:48:59.029Z,40.86
2017-12-16T06:51:27.683Z,40.82
2017-12-16T06:53:56.774Z,41.04
2017-12-16T06:56:25.352Z,41.02
2017-12-16T06:58:54.095Z,40.96
2017-12-16T07:01:23.018Z,41.00
2017-12-16T07:03:51.768Z,40.95
2017-12-16T07:06:20.908Z,40.90
2017-12-16T07:08:49.738Z,40.70
2017-12-16T07:11:18.498Z,40.63
2017-12-16T07:13:47.228Z,40.58
2017-12-16T07:16:16.182Z,40.64
2017-12-16T07:18:44.902Z,41.08
2017-12-16T07:21:13.689Z,41.26
2017-12-16T07:23:43.064Z,41.07
2017-12-16T07:26:12.963Z,41.05
2017-12-16T07:28:42.030Z,41.25
2017-12-16T07:31:12.545Z,41.21
2017-12-16T07:33:42.050Z,41.36
2017-12-16T07:36:10.764Z,41.54
2017-12-16T07:38:39.668Z,41.54
2017-12-16T07:41:08.509Z,41.52
2017-12-16T07:43:37.328Z,41.51
2017-12-16T07:46:05.893Z,41.51
2017-12-16T07:48:34.511Z,41.56
2017-12-16T07:51:03.052Z,41.65
2017-12-16T07:53:31.586Z,41.58
2017-12-16T07:56:00.266Z,41.60
2017-12-16T07:58:28.888Z,41.67
2017-12-16T08:00:57.903Z,41.63
2017-12-16T08:03:35.229Z,41.50
2017-12-16T08:06:04.000Z,41.47
2017-12-16T08:08:32.853Z,41.51
2017-12-16T08:11:01.756Z,41.43
2017-12-16T08:13:30.661Z,41.34
2017-12-16T08:15:59.152Z,41.30
2017-12-16T08:18:27.820Z,41.24
2017-12-16T08:20:56.335Z,41.21
2017-12-16T08:23:26.029Z,41.14
2017-12-16T08:25:54.852Z,41.12
2017-12-16T08:28:23.394Z,41.05
2017-12-16T08:30:52.053Z,41.09
2017-12-16T08:33:20.683Z,41.10
2017-12-16T08:35:49.476Z,41.13
2017-12-16T08:38:17.946Z,41.19
2017-12-16T08:40:46.561Z,41.20
2017-12-16T08:43:15.258Z,41.24
2017-12-16T08:45:43.959Z,41.24
2017-12-16T08:48:12.508Z,41.26
2017-12-16T08:50:41.189Z,41.29
2017-12-16T08:53:09.715Z,41.28
2017-12-16T08:55:39.752Z,41.20
2017-12-16T08:58:08.605Z,41.12
2017-12-16T09:00:37.302Z,41.16
2017-12-16T09:03:05.768Z,41.15
2017-12-16T09:05:35.009Z,41.11
2017-12-16T09:08:03.686Z,41.10
2017-12-16T09:10:32.746Z,41.15
2017-12-16T09:13:01.672Z,41.11
2017-12-16T09:15:30.599Z,41.13
2017-12-16T09:17:59.273Z,41.25
2017-12-16T09:20:28.645Z,41.18
2017-12-16T09:22:58.187Z,41.15
2017-12-16T09:25:26.733Z,41.08
2017-12-16T09:27:55.621Z,41.08
2017-12-16T09:30:24.529Z,41.05
2017-12-16T09:32:53.429Z,41.00
2017-12-16T09:35:22.169Z,40.97
2017-12-16T09:37:50.632Z,40.95
2017-12-16T09:40:19.468Z,41.46
2017-12-16T09:42:48.305Z,41.88
2017-12-16T09:45:17.295Z,41.72
2017-12-16T09:47:46.154Z,41.56
2017-12-16T09:50:15.760Z,41.50
2017-12-16T09:52:44.257Z,41.41
2017-12-16T09:55:12.853Z,41.21
2017-12-16T09:57:41.550Z,41.27
2017-12-16T10:00:10.392Z,41.27
2017-12-16T10:02:38.946Z,41.18
2017-12-16T10:05:07.591Z,41.38
2017-12-16T10:07:36.464Z,41.33
2017-12-16T10:10:05.212Z,41.51
2017-12-16T10:12:33.701Z,41.47
2017-12-16T10:15:02.356Z,41.46
2017-12-16T10:17:31.113Z,41.36
2017-12-16T10:19:59.720Z,41.36
2017-12-16T10:22:28.576Z,41.26
2017-12-16T10:24:57.197Z,41.17
2017-12-16T10:27:26.044Z,41.11
2017-12-16T10:29:55.097Z,40.98
2017-12-16T10:32:23.832Z,40.82
2017-12-16T10:34:52.534Z,40.82
2017-12-16T10:37:21.186Z,40.79
2017-12-16T10:39:49.900Z,40.72
2017-12-16T10:42:18.969Z,39.75
2017-12-16T10:44:47.502Z,39.79
2017-12-16T10:47:16.145Z,40.05
2017-12-16T10:49:44.796Z,40.23
2017-12-16T10:52:13.732Z,40.39
2017-12-16T10:54:42.344Z,40.46
2017-12-16T10:57:11.073Z,40.47
2017-12-16T10:59:40.308Z,40.55
2017-12-16T11:02:09.518Z,40.49
2017-12-16T11:04:39.550Z,40.54
2017-12-16T11:07:09.232Z,40.51
2017-12-16T11:09:37.851Z,40.57
2017-12-16T11:12:06.401Z,40.59
2017-12-16T11:14:35.087Z,40.79
2017-12-16T11:17:03.888Z,40.79
2017-12-16T11:19:32.562Z,40.75
2017-12-16T11:22:01.260Z,40.77
2017-12-16T11:24:29.828Z,40.72
2017-12-16T11:26:58.521Z,40.75
2017-12-16T11:29:27.128Z,40.88
2017-12-16T11:31:55.675Z,40.91
2017-12-16T11:34:24.369Z,40.86
2017-12-16T11:36:52.999Z,40.83
2017-12-16T11:39:22.197Z,40.88
2017-12-16T11:41:50.974Z,40.93
2017-12-16T11:44:19.885Z,40.97
2017-12-16T11:46:48.794Z,40.98
2017-12-16T11:49:17.438Z,40.94
2017-12-16T11:51:46.137Z,41.03
2017-12-16T11:54:14.670Z,41.10
2017-12-16T11:56:43.386Z,41.18
2017-12-16T11:59:11.926Z,41.13
2017-12-16T12:01:41.033Z,41.20
2017-12-16T12:04:15.474Z,41.21
2017-12-16T12:06:44.251Z,41.26
2017-12-16T12:09:12.749Z,41.30
2017-12-16T12:11:41.412Z,41.38
2017-12-16T12:14:10.052Z,41.43
2017-12-16T12:16:38.837Z,41.39
2017-12-16T12:19:07.286Z,41.43
2017-12-16T12:21:35.820Z,41.43
2017-12-16T12:24:04.600Z,41.43
2017-12-16T12:26:33.431Z,41.48
2017-12-16T12:29:01.903Z,41.40
2017-12-16T12:31:30.657Z,41.40
2017-12-16T12:33:59.624Z,41.42
2017-12-16T12:36:28.136Z,41.40
2017-12-16T12:38:56.932Z,41.38
2017-12-16T12:41:25.542Z,41.41
2017-12-16T12:43:54.165Z,41.49
2017-12-16T12:46:22.959Z,41.48
2017-12-16T12:48:51.673Z,41.46
2017-12-16T12:51:20.514Z,41.44
2017-12-16T12:53:49.072Z,41.40
2017-12-16T12:56:17.863Z,41.44
2017-12-16T12:58:46.773Z,41.46
2017-12-16T13:01:15.423Z,41.39
2017-12-16T13:03:44.004Z,41.39
2017-12-16T13:06:12.509Z,41.42
2017-12-16T13:08:41.481Z,41.41
2017-12-16T13:11:10.252Z,41.43
2017-12-16T13:13:40.067Z,41.42
2017-12-16T13:16:08.740Z,41.41
2017-12-16T13:18:37.316Z,41.31
2017-12-16T13:21:06.256Z,41.31
2017-12-16T13:23:34.894Z,41.28
2017-12-16T13:26:03.626Z,41.31
2017-12-16T13:28:32.121Z,41.28
2017-12-16T13:31:00.833Z,41.32
2017-12-16T13:33:30.306Z,41.25
2017-12-16T13:35:59.033Z,41.24
2017-12-16T13:38:27.960Z,41.21
2017-12-16T13:40:56.669Z,41.19
2017-12-16T13:43:25.256Z,41.14
2017-12-16T13:45:54.088Z,41.09
2017-12-16T13:48:22.724Z,41.20
2017-12-16T13:50:51.814Z,41.20
2017-12-16T13:53:20.664Z,41.17
2017-12-16T13:55:49.519Z,41.17
2017-12-16T13:58:18.690Z,41.19
2017-12-16T14:00:47.400Z,41.21
2017-12-16T14:03:16.212Z,41.15
2017-12-16T14:05:45.328Z,41.17
2017-12-16T14:08:14.127Z,41.17
2017-12-16T14:10:42.632Z,41.14
2017-12-16T14:13:11.117Z,41.17
2017-12-16T14:15:39.865Z,41.19
2017-12-16T14:18:08.509Z,41.12
2017-12-16T14:20:37.133Z,41.23
2017-12-16T14:23:05.833Z,41.23
2017-12-16T14:25:34.429Z,41.25
2017-12-16T14:28:03.000Z,41.27
2017-12-16T14:30:31.989Z,41.45
2017-12-16T14:33:00.866Z,40.64
2017-12-16T14:35:29.565Z,39.66
2017-12-16T14:37:58.256Z,39.41
2017-12-16T14:40:26.865Z,38.64
2017-12-16T14:42:56.252Z,38.48
2017-12-16T14:45:25.000Z,38.28
2017-12-16T14:47:53.580Z,38.50
2017-12-16T14:50:22.180Z,39.38
2017-12-16T14:52:50.965Z,39.57
2017-12-16T14:55:19.598Z,39.60
2017-12-16T14:57:48.332Z,39.64
2017-12-16T15:00:16.881Z,39.66
2017-12-16T15:02:45.560Z,39.73
2017-12-16T15:05:14.227Z,39.77
2017-12-16T15:07:43.012Z,39.81
2017-12-16T15:10:11.688Z,39.82
2017-12-16T15:12:40.292Z,39.86
2017-12-16T15:15:09.232Z,39.89
2017-12-16T15:17:38.020Z,39.93
2017-12-16T15:20:06.664Z,39.94
2017-12-16T15:22:35.369Z,39.97
2017-12-16T15:25:03.956Z,39.98
2017-12-16T15:27:32.576Z,40.04
2017-12-16T15:30:01.077Z,40.04
2017-12-16T15:32:29.760Z,40.13
2017-12-16T15:34:58.432Z,40.09
2017-12-16T15:37:27.542Z,40.11
2017-12-16T15:39:56.197Z,40.13
2017-12-16T15:42:25.118Z,40.19
2017-12-16T15:44:53.889Z,40.22
2017-12-16T15:47:22.849Z,40.20
2017-12-16T15:49:51.548Z,40.21
2017-12-16T15:52:20.264Z,40.18
2017-12-16T15:54:49.416Z,40.20
2017-12-16T15:57:19.091Z,40.17
2017-12-16T15:59:48.020Z,40.25
2017-12-16T16:02:16.976Z,40.28
2017-12-16T16:04:53.034Z,40.36
2017-12-16T16:07:21.668Z,40.36
2017-12-16T16:09:50.268Z,40.31
2017-12-16T16:12:19.092Z,40.25
2017-12-16T16:14:47.897Z,40.27
2017-12-16T16:17:16.504Z,40.16
2017-12-16T16:19:44.984Z,40.24
2017-12-16T16:22:13.704Z,40.21
2017-12-16T16:24:42.664Z,41.13
2017-12-16T16:27:11.210Z,41.23
2017-12-16T16:29:40.136Z,41.20
2017-12-16T16:32:08.942Z,41.25
2017-12-16T16:34:37.592Z,41.37
2017-12-16T16:37:06.335Z,41.58
2017-12-16T16:39:39.317Z,41.59
2017-12-16T16:42:08.432Z,41.67
2017-12-16T16:44:37.074Z,41.74
2017-12-16T16:47:06.190Z,41.97
2017-12-16T16:49:34.897Z,42.10
2017-12-16T16:52:03.552Z,42.05
2017-12-16T16:54:32.224Z,42.18
2017-12-16T16:57:00.948Z,42.09
2017-12-16T16:59:29.492Z,42.12
2017-12-16T17:01:59.581Z,42.06
2017-12-16T17:04:28.213Z,42.08
2017-12-16T17:06:57.061Z,42.22
2017-12-16T17:09:25.700Z,42.24
2017-12-16T17:11:54.435Z,42.39
2017-12-16T17:14:25.144Z,42.42
2017-12-16T17:16:54.233Z,42.53
2017-12-16T17:19:22.993Z,42.59
2017-12-16T17:21:51.692Z,42.54
2017-12-16T17:24:20.512Z,42.55
2017-12-16T17:26:49.072Z,42.49
2017-12-16T17:29:17.989Z,42.59
2017-12-16T17:31:46.642Z,42.80
2017-12-16T17:34:15.342Z,43.10
2017-12-16T17:36:44.156Z,43.30
2017-12-16T17:39:12.930Z,43.46
2017-12-16T17:41:41.793Z,43.74
2017-12-16T17:44:10.505Z,43.93
2017-12-16T17:46:39.262Z,43.98
2017-12-16T17:49:07.712Z,44.17
2017-12-16T17:51:36.397Z,44.23
2017-12-16T17:54:05.059Z,44.38
2017-12-16T17:56:33.762Z,44.42
2017-12-16T17:59:02.216Z,44.48
2017-12-16T18:01:31.487Z,44.27
2017-12-16T18:04:00.281Z,44.49
2017-12-16T18:06:29.888Z,44.40
2017-12-16T18:08:58.416Z,44.44
2017-12-16T18:11:27.232Z,44.62
2017-12-16T18:13:55.920Z,44.65
2017-12-16T18:16:24.913Z,44.63
2017-12-16T18:18:53.589Z,44.61
2017-12-16T18:21:23.501Z,44.57
2017-12-16T18:23:52.057Z,44.52
2017-12-16T18:26:20.757Z,44.52
2017-12-16T18:28:49.422Z,44.42
2017-12-16T18:31:18.100Z,44.27
2017-12-16T18:33:46.873Z,44.10
2017-12-16T18:36:15.525Z,43.95
2017-12-16T18:38:44.108Z,43.86
2017-12-16T18:41:12.690Z,43.74
2017-12-16T18:43:41.586Z,43.65
2017-12-16T18:46:10.895Z,43.45
2017-12-16T18:48:39.920Z,43.33
2017-12-16T18:51:09.327Z,43.06
2017-12-16T18:53:38.627Z,43.05
2017-12-16T18:56:07.268Z,42.93
2017-12-16T18:58:36.005Z,42.80
2017-12-16T19:01:05.084Z,42.75
2017-12-16T19:03:33.803Z,42.95
2017-12-16T19:06:02.610Z,42.63
2017-12-16T19:08:31.268Z,42.69
2017-12-16T19:11:00.581Z,41.87
2017-12-16T19:13:29.229Z,41.38
2017-12-16T19:15:57.864Z,41.13
2017-12-16T19:18:26.481Z,40.60
2017-12-16T19:20:55.167Z,40.31
2017-12-16T19:23:24.062Z,39.79
2017-12-16T19:25:53.047Z,39.89
2017-12-16T19:28:21.869Z,39.82
2017-12-16T19:30:55.052Z,39.77
2017-12-16T19:33:24.465Z,39.74
2017-12-16T19:35:53.632Z,39.74
2017-12-16T19:38:22.384Z,39.93
2017-12-16T19:40:51.101Z,39.82
2017-12-16T19:43:21.271Z,39.81
2017-12-16T19:45:50.313Z,39.71
2017-12-16T19:48:19.011Z,39.82
2017-12-16T19:50:47.494Z,39.72
2017-12-16T19:53:18.674Z,39.79
2017-12-16T19:55:48.796Z,39.87
2017-12-16T19:58:17.537Z,39.84
2017-12-16T20:00:46.502Z,39.97
2017-12-16T20:03:15.380Z,39.89
2017-12-16T20:05:43.919Z,39.81
2017-12-16T20:08:12.619Z,39.84
2017-12-16T20:10:42.401Z,39.92
2017-12-16T20:13:11.104Z,39.74
2017-12-16T20:15:39.826Z,39.51
2017-12-16T20:18:08.651Z,39.25
2017-12-16T20:20:37.161Z,39.03
2017-12-16T20:23:06.403Z,38.73
2017-12-16T20:25:36.359Z,38.52
2017-12-16T20:28:05.114Z,38.29
2017-12-16T20:30:34.749Z,38.44
2017-12-16T20:33:03.531Z,38.57
2017-12-16T20:35:32.032Z,38.96
2017-12-16T20:38:00.815Z,39.10
2017-12-16T20:40:29.394Z,39.04
2017-12-16T20:42:57.991Z,39.05
2017-12-16T20:45:26.759Z,39.09
2017-12-16T20:47:55.337Z,39.19
2017-12-16T20:50:23.920Z,39.25
2017-12-16T20:52:52.531Z,39.63
2017-12-16T20:55:21.236Z,39.90
2017-12-16T20:57:49.841Z,40.13
2017-12-16T21:00:18.644Z,40.85
2017-12-16T21:02:47.524Z,41.22
2017-12-16T21:05:16.385Z,41.46
2017-12-16T21:07:46.264Z,41.71
2017-12-16T21:10:15.052Z,41.89
2017-12-16T21:12:43.567Z,41.95
2017-12-16T21:15:12.481Z,42.39
2017-12-16T21:17:41.088Z,42.48
2017-12-16T21:20:09.993Z,42.18
2017-12-16T21:22:39.212Z,42.29
2017-12-16T21:25:07.946Z,42.32
2017-12-16T21:27:36.853Z,42.28
2017-12-16T21:30:05.662Z,42.36
2017-12-16T21:32:34.263Z,42.48
2017-12-16T21:35:02.825Z,42.55
2017-12-16T21:37:33.809Z,42.53
2017-12-16T21:40:03.328Z,42.60
2017-12-16T21:42:31.990Z,42.68
2017-12-16T21:45:00.930Z,42.78
2017-12-16T21:47:29.829Z,43.01
2017-12-16T21:49:58.776Z,43.04
2017-12-16T21:52:27.349Z,43.22
2017-12-16T21:54:56.265Z,43.34
2017-12-16T21:57:24.850Z,43.31
2017-12-16T21:59:53.512Z,43.45
2017-12-16T22:02:22.166Z,43.55
2017-12-16T22:04:52.659Z,43.69
2017-12-16T22:07:21.366Z,43.73
2017-12-16T22:09:50.152Z,43.81
2017-12-16T22:12:18.681Z,43.79
2017-12-16T22:14:47.688Z,43.82
2017-12-16T22:17:17.710Z,44.00
2017-12-16T22:19:46.806Z,43.97
2017-12-16T22:22:15.392Z,43.96
2017-12-16T22:24:44.114Z,44.01
2017-12-16T22:27:12.908Z,44.02
2017-12-16T22:29:41.564Z,44.10
2017-12-16T22:32:10.301Z,44.05
2017-12-16T22:34:39.338Z,44.16
2017-12-16T22:37:07.920Z,44.19
2017-12-16T22:39:38.752Z,44.22
2017-12-16T22:42:07.396Z,44.21
2017-12-16T22:44:35.964Z,44.64
2017-12-16T22:47:04.635Z,44.15
2017-12-16T22:49:33.385Z,43.67
2017-12-16T22:52:02.214Z,43.18
2017-12-16T22:54:31.177Z,42.91
2017-12-16T22:57:00.014Z,42.75
2017-12-16T22:59:28.633Z,42.50
2017-12-16T23:01:57.259Z,42.23
2017-12-16T23:04:26.348Z,42.13
2017-12-16T23:06:55.100Z,41.97
2017-12-16T23:09:23.756Z,41.88
2017-12-16T23:11:52.638Z,41.78
2017-12-16T23:14:21.500Z,41.77
2017-12-16T23:16:50.338Z,41.66
2017-12-16T23:19:18.886Z,41.60
2017-12-16T23:21:47.754Z,41.54
2017-12-16T23:24:16.338Z,41.46
2017-12-16T23:26:44.881Z,41.45
2017-12-16T23:29:13.639Z,41.39
2017-12-16T23:31:42.842Z,41.35
2017-12-16T23:34:11.352Z,41.34
2017-12-16T23:36:40.440Z,41.30
2017-12-16T23:39:09.168Z,41.27
2017-12-16T23:41:37.999Z,41.19
2017-12-16T23:44:06.570Z,41.20
2017-12-16T23:46:35.300Z,41.05
2017-12-16T23:49:03.914Z,40.98
2017-12-16T23:51:32.451Z,40.99
2017-12-16T23:54:01.186Z,40.91
2017-12-16T23:56:29.916Z,40.85
2017-12-16T23:58:58.622Z,40.81
